Terminal Aerodrome Forecast
Issued by NWS Louisville, KY

Home | Current Version | Previous Version | Text Only | Print | Product List | Glossary On
Versions: 1 2 3 4 5 6 7 8 9 10 11 12 13 14 15 16 17 18 19 20 21
000
FTUS43 KLMK 011700
TAFLEX
TAF
KLEX 011720Z 0118/0218 26006KT 6SM HZ VCSH BKN035
     FM011900 24007KT P6SM VCTS BKN045CB
     FM012300 22006KT P6SM VCSH BKN050
     FM020700 20005KT P6SM VCTS BKN040CB
     FM021100 20006KT P6SM VCSH BKN060=

USA.gov is the U.S. government's official web portal to all federal, state and local government web resources and services.